createdAt,value
2024-02-29T00:02:11.986Z,29.10
2024-02-29T00:04:38.824Z,26.42
2024-02-29T00:07:06.322Z,27.40
2024-02-29T00:09:33.554Z,28.13
2024-02-29T00:12:00.421Z,28.73
2024-02-29T00:14:28.217Z,27.90
2024-02-29T00:16:55.102Z,27.45
2024-02-29T00:19:21.934Z,28.30
2024-02-29T00:21:48.712Z,29.58
2024-02-29T00:24:15.619Z,29.23
2024-02-29T00:26:42.657Z,26.80
2024-02-29T00:29:09.509Z,28.05
2024-02-29T00:31:36.765Z,28.60
2024-02-29T00:34:03.537Z,28.27
2024-02-29T00:36:30.369Z,29.33
2024-02-29T00:39:05.920Z,30.00
2024-02-29T00:41:38.755Z,29.63
2024-02-29T00:44:05.799Z,29.45
2024-02-29T00:46:32.501Z,30.60
2024-02-29T00:48:59.290Z,28.38
2024-02-29T00:51:25.981Z,30.35
2024-02-29T00:53:52.717Z,29.38
2024-02-29T00:56:19.426Z,28.02
2024-02-29T00:58:46.352Z,30.38
2024-02-29T01:01:13.529Z,30.85
2024-02-29T01:03:40.361Z,28.85
2024-02-29T01:06:08.393Z,30.13
2024-02-29T01:08:35.187Z,30.60
2024-02-29T01:11:02.059Z,29.52
2024-02-29T01:13:28.845Z,28.88
2024-02-29T01:15:55.647Z,30.02
2024-02-29T01:18:22.372Z,28.95
2024-02-29T01:20:49.050Z,30.92
2024-02-29T01:23:15.736Z,30.55
2024-02-29T01:25:42.679Z,31.25
2024-02-29T01:28:09.425Z,29.27
2024-02-29T01:30:36.215Z,29.25
2024-02-29T01:33:02.929Z,30.35
2024-02-29T01:35:29.642Z,30.50
2024-02-29T01:37:56.302Z,31.50
2024-02-29T01:40:23.337Z,30.70
2024-02-29T01:42:51.365Z,30.98
2024-02-29T01:45:18.976Z,31.75
2024-02-29T01:47:45.812Z,31.45
2024-02-29T01:50:15.732Z,30.63
2024-02-29T01:52:45.019Z,32.30
2024-02-29T01:55:12.805Z,32.00
2024-02-29T01:57:40.763Z,29.23
2024-02-29T02:00:09.715Z,32.78
2024-02-29T02:02:39.460Z,32.85
2024-02-29T02:05:08.299Z,30.90
2024-02-29T02:07:38.548Z,32.35
2024-02-29T02:10:08.912Z,31.60
2024-02-29T02:12:36.150Z,33.75
2024-02-29T02:15:04.369Z,32.33
2024-02-29T02:17:33.049Z,31.35
2024-02-29T02:20:01.471Z,32.75
2024-02-29T02:22:29.891Z,32.67
2024-02-29T02:24:57.294Z,34.95
2024-02-29T02:27:24.207Z,33.63
2024-02-29T02:29:50.838Z,32.58
2024-02-29T02:32:17.569Z,32.53
2024-02-29T02:34:44.199Z,33.72
2024-02-29T02:37:10.940Z,32.60
2024-02-29T02:39:37.875Z,31.88
2024-02-29T02:42:04.818Z,34.28
2024-02-29T02:44:31.488Z,35.03
2024-02-29T02:46:58.194Z,34.05
2024-02-29T02:49:24.865Z,35.22
2024-02-29T02:51:51.552Z,34.42
2024-02-29T02:54:18.286Z,34.88
2024-02-29T02:56:44.968Z,34.28
2024-02-29T02:59:12.541Z,36.83
2024-02-29T03:01:39.240Z,37.35
2024-02-29T03:04:06.083Z,34.80
2024-02-29T03:06:32.880Z,37.53
2024-02-29T03:08:59.733Z,34.55
2024-02-29T03:11:26.552Z,36.35
2024-02-29T03:13:54.591Z,36.22
2024-02-29T03:16:25.016Z,36.60
2024-02-29T03:18:52.043Z,35.28
2024-02-29T03:21:19.173Z,38.00
2024-02-29T03:23:45.874Z,35.97
2024-02-29T03:26:12.514Z,37.88
2024-02-29T03:28:43.119Z,36.35
2024-02-29T03:31:16.701Z,38.08
2024-02-29T03:33:43.540Z,38.38
2024-02-29T03:36:10.478Z,38.97
2024-02-29T03:38:38.253Z,39.03
2024-02-29T03:41:08.057Z,38.53
2024-02-29T03:43:37.588Z,37.55
2024-02-29T03:46:04.701Z,37.95
2024-02-29T03:48:31.527Z,36.85
2024-02-29T03:50:58.296Z,38.70
2024-02-29T03:53:24.965Z,38.75
2024-02-29T03:55:51.685Z,39.75
2024-02-29T03:58:18.341Z,40.15
2024-02-29T04:00:45.250Z,40.03
2024-02-29T04:03:11.990Z,39.00
2024-02-29T04:05:38.652Z,40.03
2024-02-29T04:08:06.281Z,39.38
2024-02-29T04:10:32.922Z,40.67
2024-02-29T04:12:59.846Z,41.10
2024-02-29T04:15:26.769Z,41.20
2024-02-29T04:17:53.555Z,40.70
2024-02-29T04:20:20.568Z,41.90
2024-02-29T04:22:47.237Z,40.30
2024-02-29T04:25:14.047Z,41.45
2024-02-29T04:27:40.861Z,41.42
2024-02-29T04:30:09.704Z,40.67
2024-02-29T04:32:39.278Z,40.83
2024-02-29T04:35:07.146Z,41.13
2024-02-29T04:37:33.914Z,41.50
2024-02-29T04:40:00.694Z,40.92
2024-02-29T04:42:27.387Z,41.92
2024-02-29T04:44:54.097Z,41.75
2024-02-29T04:47:21.835Z,40.40
2024-02-29T04:49:48.664Z,40.13
2024-02-29T04:52:15.704Z,42.58
2024-02-29T04:54:42.351Z,41.88
2024-02-29T04:57:09.132Z,42.55
2024-02-29T04:59:35.799Z,43.45
2024-02-29T05:02:02.928Z,43.80
2024-02-29T05:04:29.761Z,40.75
2024-02-29T05:06:57.500Z,44.15
2024-02-29T05:09:24.683Z,41.90
2024-02-29T05:11:51.359Z,42.17
2024-02-29T05:14:18.060Z,40.60
2024-02-29T05:16:44.710Z,42.33
2024-02-29T05:19:11.866Z,42.00
2024-02-29T05:21:39.716Z,42.67
2024-02-29T05:24:06.591Z,43.70
2024-02-29T05:26:33.290Z,42.13
2024-02-29T05:29:00.004Z,44.42
2024-02-29T05:31:26.648Z,45.15
2024-02-29T05:33:53.333Z,42.80
2024-02-29T05:36:20.051Z,41.38
2024-02-29T05:38:51.227Z,42.33
2024-02-29T05:41:18.982Z,42.80
2024-02-29T05:43:47.349Z,43.15
2024-02-29T05:46:14.363Z,41.42
2024-02-29T05:48:41.359Z,42.50
2024-02-29T05:51:12.858Z,46.13
2024-02-29T05:53:39.762Z,43.40
2024-02-29T05:56:06.439Z,43.30
2024-02-29T05:58:33.172Z,45.72
2024-02-29T06:01:00.101Z,42.95
2024-02-29T06:03:27.417Z,43.33
2024-02-29T06:05:54.200Z,43.30
2024-02-29T06:08:20.889Z,43.83
2024-02-29T06:10:48.360Z,44.28
2024-02-29T06:13:15.612Z,42.22
2024-02-29T06:15:43.323Z,43.85
2024-02-29T06:18:11.806Z,43.30
2024-02-29T06:20:38.611Z,44.50
2024-02-29T06:23:05.733Z,45.15
2024-02-29T06:25:32.793Z,45.55
2024-02-29T06:27:59.552Z,44.97
2024-02-29T06:30:33.314Z,45.65
2024-02-29T06:33:00.629Z,44.78
2024-02-29T06:35:28.562Z,46.95
2024-02-29T06:37:55.306Z,44.53
2024-02-29T06:40:23.140Z,44.65
2024-02-29T06:42:50.273Z,48.25
2024-02-29T06:45:18.088Z,45.53
2024-02-29T06:47:45.838Z,44.53
2024-02-29T06:50:13.690Z,45.22
2024-02-29T06:52:40.850Z,46.20
2024-02-29T06:55:11.296Z,46.53
2024-02-29T06:57:38.901Z,46.22
2024-02-29T07:00:07.348Z,43.47
2024-02-29T07:02:34.578Z,47.60
2024-02-29T07:05:01.557Z,45.20
2024-02-29T07:07:28.343Z,48.67
2024-02-29T07:09:55.698Z,44.67
2024-02-29T07:12:22.483Z,45.63
2024-02-29T07:14:49.571Z,44.83
2024-02-29T07:17:16.470Z,46.03
2024-02-29T07:19:43.132Z,44.83
2024-02-29T07:22:09.821Z,41.97
2024-02-29T07:24:36.562Z,43.75
2024-02-29T07:27:03.244Z,44.30
2024-02-29T07:29:30.587Z,43.75
2024-02-29T07:31:57.321Z,45.25
2024-02-29T07:34:24.041Z,43.03
2024-02-29T07:36:50.747Z,44.08
2024-02-29T07:39:17.879Z,43.17
2024-02-29T07:41:44.619Z,42.67
2024-02-29T07:44:11.365Z,43.65
2024-02-29T07:46:38.145Z,41.30
2024-02-29T07:49:05.054Z,43.05
2024-02-29T07:51:31.704Z,42.47
2024-02-29T07:53:58.363Z,42.75
2024-02-29T07:56:27.304Z,43.20
2024-02-29T07:58:55.452Z,42.78
2024-02-29T08:01:22.224Z,39.58
2024-02-29T08:03:49.743Z,40.80
2024-02-29T08:06:17.746Z,41.67
2024-02-29T08:08:44.465Z,39.00
2024-02-29T08:11:11.206Z,38.13
2024-02-29T08:13:38.000Z,39.10
2024-02-29T08:16:05.486Z,43.30
2024-02-29T08:18:32.505Z,40.30
2024-02-29T08:20:59.149Z,40.03
2024-02-29T08:23:26.139Z,38.13
2024-02-29T08:25:53.025Z,40.28
2024-02-29T08:28:19.843Z,39.60
2024-02-29T08:30:46.963Z,38.65
2024-02-29T08:33:13.711Z,39.88
2024-02-29T08:35:40.417Z,40.08
2024-02-29T08:38:07.198Z,41.08
2024-02-29T08:40:33.992Z,41.30
2024-02-29T08:43:00.722Z,40.15
2024-02-29T08:45:27.571Z,41.45
2024-02-29T08:47:54.274Z,39.03
2024-02-29T08:50:20.921Z,40.60
2024-02-29T08:52:47.699Z,39.85
2024-02-29T08:55:14.470Z,41.10
2024-02-29T08:57:41.244Z,39.38
2024-02-29T09:00:08.344Z,39.78
2024-02-29T09:02:34.966Z,38.03
2024-02-29T09:05:01.653Z,36.53
2024-02-29T09:07:28.564Z,36.70
2024-02-29T09:09:55.388Z,36.22
2024-02-29T09:12:22.118Z,35.38
2024-02-29T09:14:48.872Z,35.80
2024-02-29T09:17:16.037Z,37.05
2024-02-29T09:19:42.725Z,36.90
2024-02-29T09:22:09.417Z,36.00
2024-02-29T09:24:36.133Z,37.08
2024-02-29T09:27:03.538Z,37.75
2024-02-29T09:29:32.906Z,35.33
2024-02-29T09:32:00.895Z,34.85
2024-02-29T09:34:27.646Z,34.47
2024-02-29T09:36:54.434Z,34.70
2024-02-29T09:39:21.078Z,34.38
2024-02-29T09:42:08.238Z,32.08
2024-02-29T09:44:35.246Z,34.10
2024-02-29T09:47:02.350Z,34.10
2024-02-29T09:49:29.695Z,33.45
2024-02-29T09:51:56.656Z,36.28
2024-02-29T09:54:23.574Z,34.15
2024-02-29T09:56:50.279Z,34.58
2024-02-29T09:59:18.684Z,34.75
2024-02-29T10:01:49.500Z,33.72
2024-02-29T10:04:16.657Z,35.55
2024-02-29T10:06:43.508Z,35.97
2024-02-29T10:09:10.442Z,34.72
2024-02-29T10:11:42.127Z,34.75
2024-02-29T10:14:32.278Z,33.72
2024-02-29T10:16:58.982Z,32.75
2024-02-29T10:19:26.302Z,34.28
2024-02-29T10:21:53.714Z,32.72
2024-02-29T10:24:21.558Z,32.40
2024-02-29T10:26:48.331Z,32.65
2024-02-29T10:29:17.900Z,33.35
2024-02-29T10:31:44.857Z,32.75
2024-02-29T10:34:12.520Z,31.70
2024-02-29T10:36:41.862Z,32.63
2024-02-29T10:39:10.020Z,32.13
2024-02-29T10:41:40.050Z,30.67
2024-02-29T10:44:10.529Z,32.25
2024-02-29T10:46:38.878Z,31.58
2024-02-29T10:49:14.299Z,31.13
2024-02-29T10:51:49.101Z,29.42
2024-02-29T10:54:23.032Z,30.00
2024-02-29T10:56:54.789Z,28.40
2024-02-29T10:59:21.807Z,27.08
2024-02-29T11:01:49.510Z,27.20
2024-02-29T11:04:16.808Z,27.35
2024-02-29T11:06:47.579Z,25.77
2024-02-29T11:09:26.457Z,24.00
2024-02-29T11:12:16.924Z,24.25
2024-02-29T11:14:49.743Z,23.40
2024-02-29T11:17:16.811Z,24.13
2024-02-29T11:19:51.818Z,23.58
2024-02-29T11:22:32.600Z,23.83
2024-02-29T11:25:00.885Z,20.50
2024-02-29T11:27:34.882Z,20.45
2024-02-29T11:30:03.401Z,20.02
2024-02-29T11:32:33.503Z,20.83
2024-02-29T11:35:01.127Z,21.30
2024-02-29T11:37:34.738Z,20.20
2024-02-29T11:40:06.047Z,19.80
2024-02-29T11:42:33.201Z,20.15
2024-02-29T11:44:59.865Z,19.70
2024-02-29T11:47:26.557Z,18.42
2024-02-29T11:49:54.915Z,19.65
2024-02-29T11:52:21.711Z,18.75
2024-02-29T11:54:48.542Z,18.23
2024-02-29T11:57:15.259Z,18.15
2024-02-29T11:59:43.150Z,17.92
2024-02-29T12:02:09.935Z,17.23
2024-02-29T12:04:37.306Z,18.08
2024-02-29T12:07:04.013Z,18.65
2024-02-29T12:09:33.365Z,17.75
2024-02-29T12:12:00.855Z,17.38
2024-02-29T12:14:27.971Z,17.38
2024-02-29T12:16:54.950Z,16.63
2024-02-29T12:19:21.712Z,17.08
2024-02-29T12:21:48.426Z,17.08
2024-02-29T12:24:16.025Z,16.52
2024-02-29T12:26:43.567Z,17.75
2024-02-29T12:29:10.395Z,16.58
2024-02-29T12:31:38.378Z,15.73
2024-02-29T12:34:06.178Z,17.90
2024-02-29T12:36:33.449Z,18.45
2024-02-29T12:39:02.309Z,17.02
2024-02-29T12:41:29.246Z,15.55
2024-02-29T12:43:58.364Z,15.93
2024-02-29T12:46:27.593Z,19.10
2024-02-29T12:48:54.320Z,17.90
2024-02-29T12:51:21.072Z,17.27
2024-02-29T12:53:47.733Z,18.15
2024-02-29T12:56:14.798Z,20.30
2024-02-29T12:58:42.340Z,21.05
2024-02-29T13:01:09.648Z,18.15
2024-02-29T13:03:36.509Z,22.08
2024-02-29T13:06:03.405Z,23.50
2024-02-29T13:08:30.272Z,22.98
2024-02-29T13:10:56.951Z,23.35
2024-02-29T13:13:23.662Z,22.60
2024-02-29T13:15:52.560Z,23.30
2024-02-29T13:18:19.851Z,21.27
2024-02-29T13:20:46.652Z,24.30
2024-02-29T13:23:13.459Z,22.23
2024-02-29T13:25:40.166Z,20.70
2024-02-29T13:28:07.170Z,21.40
2024-02-29T13:30:34.156Z,20.00
2024-02-29T13:33:01.062Z,20.35
2024-02-29T13:35:27.784Z,20.83
2024-02-29T13:37:54.583Z,20.35
2024-02-29T13:40:21.322Z,21.70
2024-02-29T13:42:49.702Z,21.33
2024-02-29T13:45:16.780Z,22.10
2024-02-29T13:47:49.305Z,22.05
2024-02-29T13:50:16.546Z,23.30
2024-02-29T13:52:44.358Z,22.88
2024-02-29T13:55:11.977Z,22.25
2024-02-29T13:57:39.092Z,21.60
2024-02-29T14:00:07.437Z,22.42
2024-02-29T14:02:34.338Z,20.48
2024-02-29T14:05:00.990Z,20.63
2024-02-29T14:07:28.481Z,20.17
2024-02-29T14:09:55.273Z,19.38
2024-02-29T14:12:22.777Z,19.58
2024-02-29T14:14:49.421Z,21.38
2024-02-29T14:17:16.079Z,20.40
2024-02-29T14:19:42.737Z,20.95
2024-02-29T14:22:09.388Z,21.40
2024-02-29T14:24:36.108Z,21.63
2024-02-29T14:27:02.832Z,20.83
2024-02-29T14:29:29.901Z,21.65
2024-02-29T14:31:56.557Z,21.80
2024-02-29T14:34:23.649Z,21.95
2024-02-29T14:36:50.649Z,22.23
2024-02-29T14:39:17.522Z,22.23
2024-02-29T14:41:45.436Z,20.00
2024-02-29T14:44:13.379Z,21.30
2024-02-29T14:46:40.055Z,22.95
2024-02-29T14:49:06.841Z,21.40
2024-02-29T14:51:33.483Z,21.95
2024-02-29T14:54:00.421Z,21.73
2024-02-29T14:56:28.240Z,20.00
2024-02-29T14:58:58.273Z,21.13
2024-02-29T15:01:25.984Z,21.33
2024-02-29T15:03:55.722Z,23.17
2024-02-29T15:06:22.692Z,21.55
2024-02-29T15:08:49.487Z,22.75
2024-02-29T15:11:16.388Z,22.88
2024-02-29T15:13:43.190Z,23.83
2024-02-29T15:16:10.413Z,23.15
2024-02-29T15:18:37.113Z,23.25
2024-02-29T15:21:03.957Z,22.58
2024-02-29T15:23:30.633Z,23.25
2024-02-29T15:25:57.407Z,23.25
2024-02-29T15:28:29.425Z,23.90
2024-02-29T15:30:56.185Z,22.65
2024-02-29T15:33:22.941Z,24.00
2024-02-29T15:35:49.841Z,24.60
2024-02-29T15:38:17.824Z,23.92
2024-02-29T15:40:47.729Z,24.52
2024-02-29T15:43:15.575Z,25.83
2024-02-29T15:45:42.888Z,25.73
2024-02-29T15:48:09.813Z,25.42
2024-02-29T15:50:36.640Z,24.70
2024-02-29T15:53:03.441Z,24.55
2024-02-29T15:55:30.188Z,24.20
2024-02-29T15:57:57.231Z,24.80
2024-02-29T16:00:24.395Z,25.58
2024-02-29T16:02:51.912Z,24.23
2024-02-29T16:05:18.817Z,23.48
2024-02-29T16:07:45.482Z,23.27
2024-02-29T16:10:12.257Z,23.50
2024-02-29T16:12:39.832Z,24.80
2024-02-29T16:15:07.534Z,21.80
2024-02-29T16:17:35.696Z,21.52
2024-02-29T16:20:02.480Z,18.63
2024-02-29T16:22:29.467Z,19.00
2024-02-29T16:24:56.353Z,18.33
2024-02-29T16:27:23.171Z,19.05
2024-02-29T16:29:49.805Z,17.95
2024-02-29T16:32:16.450Z,18.95
2024-02-29T16:34:43.137Z,19.50
2024-02-29T16:37:09.916Z,20.42
2024-02-29T16:39:37.614Z,19.58
2024-02-29T16:42:06.163Z,19.58
2024-02-29T16:44:32.908Z,19.35
2024-02-29T16:47:00.005Z,19.83
2024-02-29T16:49:27.417Z,20.60
2024-02-29T16:51:54.671Z,20.17
2024-02-29T16:54:21.392Z,20.17
2024-02-29T16:56:48.208Z,20.60
2024-02-29T16:59:15.264Z,21.33
2024-02-29T17:01:43.713Z,21.65
2024-02-29T17:04:10.588Z,20.77
2024-02-29T17:06:37.647Z,20.70
2024-02-29T17:09:04.981Z,19.98
2024-02-29T17:11:31.954Z,22.40
2024-02-29T17:13:59.344Z,21.75
2024-02-29T17:16:26.324Z,21.77
2024-02-29T17:18:53.149Z,22.38
2024-02-29T17:21:22.246Z,22.75
2024-02-29T17:23:48.941Z,21.63
2024-02-29T17:26:20.266Z,22.48
2024-02-29T17:28:52.024Z,22.55
2024-02-29T17:31:20.648Z,21.98
2024-02-29T17:33:48.137Z,21.33
2024-02-29T17:36:15.181Z,20.60
2024-02-29T17:38:44.649Z,20.35
2024-02-29T17:41:12.894Z,23.25
2024-02-29T17:43:42.897Z,23.17
2024-02-29T17:46:09.627Z,24.20
2024-02-29T17:48:36.894Z,22.77
2024-02-29T17:51:05.185Z,21.67
2024-02-29T17:53:32.020Z,21.83
2024-02-29T17:55:58.826Z,20.88
2024-02-29T17:58:25.986Z,21.88
2024-02-29T18:00:52.790Z,21.42
2024-02-29T18:03:19.521Z,22.23
2024-02-29T18:05:46.314Z,21.45
2024-02-29T18:08:13.121Z,20.10
2024-02-29T18:10:39.851Z,21.90
2024-02-29T18:13:06.976Z,20.10
2024-02-29T18:15:33.714Z,21.35
2024-02-29T18:18:00.607Z,20.80
2024-02-29T18:20:27.929Z,19.52
2024-02-29T18:22:54.795Z,21.05
2024-02-29T18:25:21.748Z,21.13
2024-02-29T18:27:48.647Z,20.38
2024-02-29T18:30:15.546Z,20.73
2024-02-29T18:32:42.263Z,20.90
2024-02-29T18:35:11.038Z,19.48
2024-02-29T18:37:40.904Z,19.55
2024-02-29T18:40:14.124Z,20.30
2024-02-29T18:42:41.197Z,19.73
2024-02-29T18:45:08.630Z,19.45
2024-02-29T18:47:36.091Z,19.52
2024-02-29T18:50:04.052Z,20.13
2024-02-29T18:52:30.942Z,20.42
2024-02-29T18:54:57.825Z,20.15
2024-02-29T18:57:24.546Z,20.75
2024-02-29T18:59:51.228Z,19.63
2024-02-29T19:02:17.874Z,20.55
2024-02-29T19:04:44.717Z,21.63
2024-02-29T19:07:11.447Z,21.30
2024-02-29T19:09:38.173Z,21.45
2024-02-29T19:12:05.164Z,20.73
2024-02-29T19:14:31.796Z,22.20
2024-02-29T19:16:58.430Z,22.70
2024-02-29T19:19:26.287Z,22.30
2024-02-29T19:21:53.215Z,22.17
2024-02-29T19:24:19.984Z,22.52
2024-02-29T19:26:46.736Z,22.98
2024-02-29T19:29:13.774Z,22.65
2024-02-29T19:31:40.528Z,23.23
2024-02-29T19:34:07.641Z,23.95
2024-02-29T19:36:34.390Z,23.05
2024-02-29T19:39:01.123Z,22.63
2024-02-29T19:41:27.886Z,22.70
2024-02-29T19:43:54.633Z,21.80
2024-02-29T19:46:21.342Z,21.92
2024-02-29T19:48:48.075Z,22.35
2024-02-29T19:51:15.676Z,23.08
2024-02-29T19:53:45.044Z,23.30
2024-02-29T19:56:12.347Z,23.50
2024-02-29T19:58:39.646Z,23.17
2024-02-29T20:01:07.313Z,23.00
2024-02-29T20:03:34.091Z,23.42
2024-02-29T20:06:01.150Z,24.00
2024-02-29T20:08:27.886Z,23.83
2024-02-29T20:10:54.666Z,24.17
2024-02-29T20:13:21.621Z,24.13
2024-02-29T20:15:48.670Z,23.88
2024-02-29T20:18:17.605Z,24.08
2024-02-29T20:20:44.427Z,23.42
2024-02-29T20:23:11.112Z,24.48
2024-02-29T20:25:38.006Z,24.48
2024-02-29T20:28:05.084Z,24.20
2024-02-29T20:30:31.781Z,25.42
2024-02-29T20:32:58.577Z,24.67
2024-02-29T20:35:25.389Z,26.48
2024-02-29T20:37:52.134Z,26.73
2024-02-29T20:40:18.987Z,26.83
2024-02-29T20:42:45.987Z,27.40
2024-02-29T20:45:16.036Z,26.40
2024-02-29T20:47:44.835Z,26.55
2024-02-29T20:50:12.053Z,27.25
2024-02-29T20:52:38.860Z,28.73
2024-02-29T20:55:06.071Z,27.17
2024-02-29T20:57:33.891Z,26.67
2024-02-29T21:00:01.071Z,29.42
2024-02-29T21:02:29.758Z,28.58
2024-02-29T21:04:59.266Z,30.25
2024-02-29T21:07:26.190Z,27.92
2024-02-29T21:09:53.108Z,28.27
2024-02-29T21:12:19.990Z,28.95
2024-02-29T21:14:46.681Z,29.30
2024-02-29T21:17:13.324Z,30.27
2024-02-29T21:19:40.228Z,29.70
2024-02-29T21:22:07.658Z,28.85
2024-02-29T21:24:34.396Z,28.88
2024-02-29T21:27:01.037Z,27.98
2024-02-29T21:29:27.694Z,29.52
2024-02-29T21:31:54.338Z,31.17
2024-02-29T21:34:21.512Z,30.05
2024-02-29T21:36:48.944Z,28.98
2024-02-29T21:39:19.169Z,30.15
2024-02-29T21:41:48.874Z,30.45
2024-02-29T21:44:15.514Z,30.35
2024-02-29T21:46:42.492Z,31.48
2024-02-29T21:49:09.857Z,31.23
2024-02-29T21:51:36.685Z,30.60
2024-02-29T21:54:03.713Z,31.15
2024-02-29T21:56:30.530Z,30.63
2024-02-29T21:58:57.231Z,28.35
2024-02-29T22:01:24.044Z,31.67
2024-02-29T22:03:50.815Z,31.00
2024-02-29T22:06:17.587Z,28.83
2024-02-29T22:08:44.221Z,32.97
2024-02-29T22:11:10.940Z,30.40
2024-02-29T22:13:37.653Z,33.05
2024-02-29T22:16:04.579Z,32.28
2024-02-29T22:18:31.301Z,30.92
2024-02-29T22:20:57.939Z,33.65
2024-02-29T22:23:24.598Z,33.13
2024-02-29T22:25:51.378Z,32.75
2024-02-29T22:28:18.214Z,34.45
2024-02-29T22:30:46.602Z,34.70
2024-02-29T22:33:14.208Z,33.50
2024-02-29T22:35:40.969Z,33.67
2024-02-29T22:38:08.014Z,33.88
2024-02-29T22:40:34.833Z,34.53
2024-02-29T22:43:01.693Z,33.47
2024-02-29T22:45:30.440Z,32.92
2024-02-29T22:47:57.575Z,34.75
2024-02-29T22:50:24.275Z,36.75
2024-02-29T22:52:50.943Z,35.05
2024-02-29T22:55:18.003Z,33.72
2024-02-29T22:57:44.727Z,36.40
2024-02-29T23:00:19.278Z,34.20
2024-02-29T23:02:45.944Z,35.85
2024-02-29T23:05:13.517Z,35.67
2024-02-29T23:07:41.295Z,34.90
2024-02-29T23:10:08.451Z,33.70
2024-02-29T23:12:36.413Z,34.05
2024-02-29T23:15:03.103Z,32.63
2024-02-29T23:17:29.736Z,33.78
2024-02-29T23:19:56.568Z,34.10
2024-02-29T23:22:23.334Z,34.63
2024-02-29T23:24:49.990Z,34.63
2024-02-29T23:27:16.700Z,33.95
2024-02-29T23:29:43.387Z,34.20
2024-02-29T23:32:10.226Z,36.45
2024-02-29T23:34:37.068Z,34.80
2024-02-29T23:37:04.918Z,34.17
2024-02-29T23:39:31.636Z,35.45
2024-02-29T23:41:58.690Z,34.55
2024-02-29T23:44:25.410Z,34.28
2024-02-29T23:46:52.129Z,35.83
2024-02-29T23:49:19.062Z,35.40
2024-02-29T23:51:45.785Z,35.85
2024-02-29T23:54:12.493Z,35.70
2024-02-29T23:56:39.248Z,35.42
2024-02-29T23:59:05.874Z,35.08
